createdAt,value
2018-12-14T00:01:16.247Z,2.50
2018-12-14T00:03:47.088Z,2.60
2018-12-14T00:06:18.337Z,2.60
2018-12-14T00:08:47.154Z,2.60
2018-12-14T00:11:16.021Z,2.70
2018-12-14T00:13:44.912Z,2.70
2018-12-14T00:16:13.781Z,2.70
2018-12-14T00:18:42.600Z,2.70
2018-12-14T00:21:11.398Z,2.60
2018-12-14T00:23:40.189Z,2.60
2018-12-14T00:26:09.087Z,2.60
2018-12-14T00:28:37.890Z,2.60
2018-12-14T00:31:06.691Z,2.60
2018-12-14T00:33:35.598Z,2.60
2018-12-14T00:36:04.413Z,2.60
2018-12-14T00:38:33.579Z,2.60
2018-12-14T00:41:02.442Z,2.70
2018-12-14T00:43:31.343Z,2.70
2018-12-14T00:46:00.197Z,2.70
2018-12-14T00:48:28.992Z,2.70
2018-12-14T00:50:57.785Z,2.70
2018-12-14T00:53:26.595Z,2.70
2018-12-14T00:55:55.379Z,2.70
2018-12-14T00:58:24.259Z,2.70
2018-12-14T01:00:53.087Z,2.70
2018-12-14T01:03:21.943Z,2.70
2018-12-14T01:05:50.751Z,2.70
2018-12-14T01:08:19.534Z,2.70
2018-12-14T01:10:48.353Z,2.70
2018-12-14T01:13:17.171Z,2.70
2018-12-14T01:15:46.075Z,2.70
2018-12-14T01:18:14.855Z,2.70
2018-12-14T01:20:43.670Z,2.70
2018-12-14T01:23:12.554Z,2.70
2018-12-14T01:25:41.341Z,2.70
2018-12-14T01:28:10.149Z,2.60
2018-12-14T01:30:38.953Z,2.70
2018-12-14T01:33:07.782Z,2.70
2018-12-14T01:35:36.565Z,2.70
2018-12-14T01:38:05.471Z,2.70
2018-12-14T01:40:34.373Z,2.70
2018-12-14T01:43:03.267Z,2.70
2018-12-14T01:45:32.129Z,2.80
2018-12-14T01:48:00.952Z,2.80
2018-12-14T01:50:29.778Z,2.80
2018-12-14T01:52:58.567Z,2.80
2018-12-14T01:55:27.503Z,2.80
2018-12-14T01:57:56.365Z,2.80
2018-12-14T02:00:26.123Z,2.70
2018-12-14T02:02:54.945Z,2.70
2018-12-14T02:05:23.747Z,2.70
2018-12-14T02:07:52.585Z,2.70
2018-12-14T02:10:21.571Z,2.80
2018-12-14T02:12:50.392Z,2.80
2018-12-14T02:15:19.214Z,2.80
2018-12-14T02:17:48.076Z,2.80
2018-12-14T02:20:16.885Z,2.70
2018-12-14T02:22:45.717Z,2.70
2018-12-14T02:25:14.543Z,2.80
2018-12-14T02:27:43.337Z,2.80
2018-12-14T02:30:23.310Z,2.80
2018-12-14T02:32:52.099Z,2.80
2018-12-14T02:35:20.909Z,2.80
2018-12-14T02:37:50.498Z,2.70
2018-12-14T02:40:19.389Z,2.70
2018-12-14T02:42:48.201Z,2.70
2018-12-14T02:45:17.013Z,2.70
2018-12-14T02:47:45.801Z,2.70
2018-12-14T02:50:14.670Z,2.70
2018-12-14T02:52:43.481Z,2.70
2018-12-14T02:55:13.377Z,2.70
2018-12-14T02:57:42.241Z,2.70
2018-12-14T03:00:11.187Z,2.70
2018-12-14T03:02:42.045Z,2.70
2018-12-14T03:05:10.876Z,2.70
2018-12-14T03:07:39.776Z,2.70
2018-12-14T03:10:08.746Z,2.70
2018-12-14T03:12:37.548Z,2.70
2018-12-14T03:15:07.083Z,2.70
2018-12-14T03:17:36.933Z,2.70
2018-12-14T03:20:06.180Z,2.70
2018-12-14T03:22:35.979Z,2.70
2018-12-14T03:25:05.748Z,2.70
2018-12-14T03:27:35.306Z,2.70
2018-12-14T03:30:05.456Z,2.70
2018-12-14T03:32:35.681Z,2.70
2018-12-14T03:35:05.526Z,2.60
2018-12-14T03:37:34.335Z,2.60
2018-12-14T03:40:03.794Z,2.60
2018-12-14T03:42:34.654Z,2.60
2018-12-14T03:45:03.451Z,2.60
2018-12-14T03:47:32.321Z,2.60
2018-12-14T03:50:01.141Z,2.60
2018-12-14T03:52:29.995Z,2.60
2018-12-14T03:54:58.807Z,2.50
2018-12-14T03:57:27.649Z,2.50
2018-12-14T03:59:56.540Z,2.50
2018-12-14T04:02:25.371Z,2.50
2018-12-14T04:04:54.190Z,2.50
2018-12-14T04:07:22.980Z,2.50
2018-12-14T04:09:51.864Z,2.50
2018-12-14T04:12:20.697Z,2.60
2018-12-14T04:14:49.501Z,2.60
2018-12-14T04:17:18.344Z,2.60
2018-12-14T04:19:47.183Z,2.60
2018-12-14T04:22:16.002Z,2.60
2018-12-14T04:24:44.823Z,2.60
2018-12-14T04:27:13.631Z,2.60
2018-12-14T04:29:42.478Z,2.50
2018-12-14T04:32:11.327Z,2.50
2018-12-14T04:34:40.125Z,2.50
2018-12-14T04:37:08.977Z,2.50
2018-12-14T04:39:37.956Z,2.50
2018-12-14T04:42:06.761Z,2.60
2018-12-14T04:44:35.576Z,2.60
2018-12-14T04:47:05.364Z,2.60
2018-12-14T04:49:34.466Z,2.50
2018-12-14T04:52:07.532Z,2.50
2018-12-14T04:54:36.352Z,2.50
2018-12-14T04:57:05.546Z,2.60
2018-12-14T04:59:34.534Z,2.60
2018-12-14T05:02:03.413Z,2.60
2018-12-14T05:04:32.240Z,2.50
2018-12-14T05:07:01.055Z,2.50
2018-12-14T05:09:30.579Z,2.50
2018-12-14T05:11:59.388Z,2.50
2018-12-14T05:14:28.690Z,2.50
2018-12-14T05:16:57.507Z,2.40
2018-12-14T05:19:26.324Z,2.40
2018-12-14T05:21:56.009Z,2.50
2018-12-14T05:24:24.836Z,2.50
2018-12-14T05:26:54.440Z,2.50
2018-12-14T05:29:23.255Z,2.60
2018-12-14T05:31:52.114Z,2.60
2018-12-14T05:34:20.986Z,2.50
2018-12-14T05:36:49.997Z,2.60
2018-12-14T05:39:20.140Z,2.50
2018-12-14T05:41:48.962Z,2.50
2018-12-14T05:44:17.776Z,2.50
2018-12-14T05:46:46.576Z,2.50
2018-12-14T05:49:15.564Z,2.60
2018-12-14T05:51:44.471Z,2.60
2018-12-14T05:54:13.254Z,2.50
2018-12-14T05:56:42.165Z,2.50
2018-12-14T05:59:10.968Z,2.50
2018-12-14T06:01:39.843Z,2.50
2018-12-14T06:04:08.647Z,2.50
2018-12-14T06:06:37.418Z,2.50
2018-12-14T06:09:07.367Z,2.50
2018-12-14T06:11:36.416Z,2.50
2018-12-14T06:15:34.463Z,2.50
2018-12-14T06:18:03.289Z,2.50
2018-12-14T06:20:32.094Z,2.50
2018-12-14T06:23:00.951Z,2.50
2018-12-14T06:25:29.779Z,2.50
2018-12-14T06:27:58.654Z,2.50
2018-12-14T06:30:27.467Z,2.50
2018-12-14T06:32:56.326Z,2.50
2018-12-14T06:35:25.249Z,2.50
2018-12-14T06:37:54.064Z,2.50
2018-12-14T06:40:22.861Z,2.50
2018-12-14T06:42:51.650Z,2.50
2018-12-14T06:45:20.566Z,2.50
2018-12-14T06:47:49.441Z,2.50
2018-12-14T06:50:18.366Z,2.50
2018-12-14T06:52:51.042Z,2.50
2018-12-14T06:55:20.056Z,2.50
2018-12-14T06:57:48.875Z,2.50
2018-12-14T07:00:17.670Z,2.50
2018-12-14T07:02:46.482Z,2.50
2018-12-14T07:05:15.464Z,2.60
2018-12-14T07:07:44.316Z,2.60
2018-12-14T07:10:13.272Z,2.60
2018-12-14T07:12:42.175Z,2.60
2018-12-14T07:15:10.986Z,2.50
2018-12-14T07:17:39.752Z,2.50
2018-12-14T07:20:08.794Z,2.50
2018-12-14T07:22:37.611Z,2.50
2018-12-14T07:25:08.058Z,2.50
2018-12-14T07:27:36.849Z,2.50
2018-12-14T07:30:05.929Z,2.50
2018-12-14T07:32:34.813Z,2.50
2018-12-14T07:35:03.765Z,2.40
2018-12-14T07:37:32.641Z,2.40
2018-12-14T07:40:01.552Z,2.40
2018-12-14T07:42:30.435Z,2.40
2018-12-14T07:45:18.791Z,2.40
2018-12-14T07:48:11.705Z,2.40
2018-12-14T07:51:01.736Z,2.50
2018-12-14T07:53:32.305Z,2.50
2018-12-14T07:56:01.165Z,2.40
2018-12-14T07:58:30.097Z,2.40
2018-12-14T08:00:58.919Z,2.50
2018-12-14T08:03:28.009Z,2.50
2018-12-14T08:05:56.957Z,2.50
2018-12-14T08:08:25.795Z,2.50
2018-12-14T08:10:54.588Z,2.50
2018-12-14T08:13:23.418Z,2.50
2018-12-14T08:15:52.281Z,2.50
2018-12-14T08:18:21.085Z,2.50
2018-12-14T08:20:49.902Z,2.70
2018-12-14T08:23:18.771Z,2.70
2018-12-14T08:25:47.599Z,2.70
2018-12-14T08:28:16.396Z,2.70
2018-12-14T08:30:45.199Z,2.70
2018-12-14T08:33:14.082Z,2.60
2018-12-14T08:35:42.898Z,2.60
2018-12-14T08:38:11.754Z,2.60
2018-12-14T08:40:40.558Z,2.60
2018-12-14T08:43:09.414Z,2.60
2018-12-14T08:45:39.506Z,2.70
2018-12-14T08:48:08.372Z,2.60
2018-12-14T08:50:37.963Z,2.70
2018-12-14T08:53:06.866Z,2.70
2018-12-14T08:55:35.674Z,2.70
2018-12-14T08:58:04.556Z,2.70
2018-12-14T09:00:34.370Z,2.70
2018-12-14T09:03:03.244Z,2.70
2018-12-14T09:05:32.054Z,2.70
2018-12-14T09:08:00.930Z,2.70
2018-12-14T09:10:29.725Z,2.70
2018-12-14T09:12:58.537Z,2.60
2018-12-14T09:15:27.418Z,2.70
2018-12-14T09:17:56.824Z,2.70
2018-12-14T09:20:26.531Z,2.70
2018-12-14T09:22:55.393Z,2.70
2018-12-14T09:25:24.321Z,2.70
2018-12-14T09:27:53.109Z,2.80
2018-12-14T09:30:21.965Z,2.80
2018-12-14T09:32:50.861Z,2.80
2018-12-14T09:35:19.667Z,2.80
2018-12-14T09:37:48.449Z,2.90
2018-12-14T09:40:17.295Z,2.90
2018-12-14T09:42:46.151Z,2.90
2018-12-14T09:45:14.948Z,2.90
2018-12-14T09:47:43.865Z,2.80
2018-12-14T09:50:12.859Z,2.90
2018-12-14T09:52:41.675Z,2.80
2018-12-14T09:55:10.477Z,2.90
2018-12-14T09:57:39.377Z,2.90
2018-12-14T10:00:08.429Z,3.00
2018-12-14T10:02:37.379Z,3.00
2018-12-14T10:05:08.027Z,3.00
2018-12-14T10:07:36.905Z,3.00
2018-12-14T10:10:07.467Z,3.00
2018-12-14T10:12:36.257Z,3.00
2018-12-14T10:15:05.776Z,3.00
2018-12-14T10:17:34.563Z,3.10
2018-12-14T10:20:03.983Z,3.00
2018-12-14T10:22:33.799Z,3.00
2018-12-14T10:25:02.729Z,3.00
2018-12-14T10:27:32.101Z,3.00
2018-12-14T10:30:00.998Z,3.00
2018-12-14T10:32:31.041Z,3.00
2018-12-14T10:35:00.359Z,3.00
2018-12-14T10:37:29.229Z,3.00
2018-12-14T10:39:58.053Z,3.00
2018-12-14T10:42:26.931Z,3.00
2018-12-14T10:44:55.786Z,2.90
2018-12-14T10:47:24.605Z,2.90
2018-12-14T10:49:53.461Z,2.90
2018-12-14T10:52:22.288Z,3.00
2018-12-14T10:54:51.539Z,3.00
2018-12-14T10:57:20.473Z,3.00
2018-12-14T10:59:49.307Z,3.00
2018-12-14T11:02:18.187Z,3.00
2018-12-14T11:04:47.065Z,3.00
2018-12-14T11:07:15.879Z,3.00
2018-12-14T11:09:44.671Z,2.90
2018-12-14T11:12:13.540Z,2.90
2018-12-14T11:14:42.349Z,2.90
2018-12-14T11:17:11.211Z,3.00
2018-12-14T11:19:40.037Z,3.00
2018-12-14T11:22:08.918Z,3.00
2018-12-14T11:24:38.767Z,3.00
2018-12-14T11:27:07.571Z,3.00
2018-12-14T11:29:36.363Z,3.00
2018-12-14T11:32:05.157Z,3.00
2018-12-14T11:34:33.955Z,3.00
2018-12-14T11:37:02.870Z,2.90
2018-12-14T11:39:31.759Z,2.90
2018-12-14T11:42:00.587Z,2.90
2018-12-14T11:44:29.416Z,2.80
2018-12-14T11:46:58.213Z,2.80
2018-12-14T11:49:27.017Z,2.80
2018-12-14T11:51:55.821Z,2.80
2018-12-14T11:54:24.633Z,2.80
2018-12-14T11:56:53.528Z,2.80
2018-12-14T11:59:22.334Z,2.90
2018-12-14T12:01:51.237Z,2.90
2018-12-14T12:04:20.066Z,3.00
2018-12-14T12:06:48.911Z,3.00
2018-12-14T12:09:17.779Z,3.10
2018-12-14T12:11:46.595Z,3.00
2018-12-14T12:14:15.695Z,3.00
2018-12-14T12:16:44.471Z,3.10
2018-12-14T12:19:13.316Z,3.10
2018-12-14T12:21:42.355Z,3.10
2018-12-14T12:24:11.322Z,3.00
2018-12-14T12:26:40.133Z,3.00
2018-12-14T12:29:08.965Z,2.90
2018-12-14T12:31:37.874Z,2.90
2018-12-14T12:34:06.661Z,2.90
2018-12-14T12:36:35.513Z,2.90
2018-12-14T12:39:06.187Z,2.80
2018-12-14T12:41:37.014Z,2.80
2018-12-14T12:44:05.809Z,2.90
2018-12-14T12:46:34.613Z,2.90
2018-12-14T12:49:03.503Z,2.90
2018-12-14T12:51:32.297Z,3.00
2018-12-14T12:54:01.133Z,3.00
2018-12-14T12:56:30.681Z,2.90
2018-12-14T12:58:59.466Z,2.90
2018-12-14T13:01:28.614Z,2.90
2018-12-14T13:03:57.399Z,2.80
2018-12-14T13:06:26.210Z,2.90
2018-12-14T13:08:55.015Z,2.90
2018-12-14T13:11:23.902Z,2.90
2018-12-14T13:13:52.779Z,2.90
2018-12-14T13:16:21.646Z,2.90
2018-12-14T13:18:50.483Z,2.90
2018-12-14T13:21:19.292Z,2.80
2018-12-14T13:23:48.115Z,2.80
2018-12-14T13:26:16.907Z,2.80
2018-12-14T13:28:45.704Z,2.90
2018-12-14T13:31:14.523Z,2.90
2018-12-14T13:33:43.305Z,2.90
2018-12-14T13:36:12.193Z,3.00
2018-12-14T13:38:41.071Z,3.00
2018-12-14T13:41:11.640Z,3.00
2018-12-14T13:43:40.519Z,3.00
2018-12-14T13:46:09.485Z,3.00
2018-12-14T13:48:38.377Z,3.00
2018-12-14T13:51:07.251Z,2.90
2018-12-14T13:53:36.126Z,2.90
2018-12-14T13:56:04.938Z,2.90
2018-12-14T13:58:33.788Z,2.90
2018-12-14T14:01:02.642Z,2.90
2018-12-14T14:03:31.429Z,3.00
2018-12-14T14:06:00.310Z,3.00
2018-12-14T14:08:29.146Z,3.00
2018-12-14T14:10:57.985Z,3.00
2018-12-14T14:13:26.904Z,3.00
2018-12-14T14:15:55.734Z,2.90
2018-12-14T14:18:24.560Z,2.80
2018-12-14T14:20:53.401Z,2.80
2018-12-14T14:23:22.204Z,2.80
2018-12-14T14:25:51.096Z,2.80
2018-12-14T14:28:19.922Z,2.80
2018-12-14T14:30:48.820Z,2.80
2018-12-14T14:33:17.702Z,2.80
2018-12-14T14:35:46.514Z,2.80
2018-12-14T14:38:15.320Z,2.80
2018-12-14T14:40:44.198Z,2.80
2018-12-14T14:43:13.076Z,2.70
2018-12-14T14:45:41.952Z,2.80
2018-12-14T14:48:10.780Z,2.80
2018-12-14T14:50:39.574Z,2.80
2018-12-14T14:53:08.385Z,2.80
2018-12-14T14:55:37.169Z,2.80
2018-12-14T14:58:06.030Z,2.70
2018-12-14T15:00:34.933Z,2.80
2018-12-14T15:03:04.106Z,2.70
2018-12-14T15:05:32.913Z,2.70
2018-12-14T15:08:01.797Z,2.70
2018-12-14T15:10:30.598Z,2.70
2018-12-14T15:12:59.501Z,2.60
2018-12-14T15:15:28.403Z,2.60
2018-12-14T15:17:57.266Z,2.50
2018-12-14T15:20:26.077Z,2.60
2018-12-14T15:22:54.869Z,2.50
2018-12-14T15:25:23.846Z,2.50
2018-12-14T15:27:52.645Z,2.50
2018-12-14T15:30:21.516Z,2.50
2018-12-14T15:32:50.385Z,2.50
2018-12-14T15:35:20.171Z,2.50
2018-12-14T15:37:48.957Z,2.50
2018-12-14T15:40:17.759Z,2.50
2018-12-14T15:42:46.583Z,2.50
2018-12-14T15:45:15.484Z,2.50
2018-12-14T15:47:44.441Z,2.60
2018-12-14T15:50:13.509Z,2.50
2018-12-14T15:52:42.321Z,2.60
2018-12-14T15:55:11.209Z,2.60
2018-12-14T15:57:40.007Z,2.50
2018-12-14T16:00:09.070Z,2.50
2018-12-14T16:02:38.005Z,2.50
2018-12-14T16:05:07.027Z,2.50
2018-12-14T16:07:36.851Z,2.40
2018-12-14T16:10:06.095Z,2.50
2018-12-14T16:12:35.005Z,2.50
2018-12-14T16:15:04.428Z,2.50
2018-12-14T16:17:33.356Z,2.50
2018-12-14T16:20:02.286Z,2.50
2018-12-14T16:22:31.650Z,2.60
2018-12-14T16:25:00.487Z,2.60
2018-12-14T16:27:29.359Z,2.60
2018-12-14T16:29:58.237Z,2.60
2018-12-14T16:32:27.011Z,2.60
2018-12-14T16:34:55.994Z,2.50
2018-12-14T16:37:24.782Z,2.60
2018-12-14T16:39:53.605Z,2.50
2018-12-14T16:42:22.426Z,2.60
2018-12-14T16:44:51.261Z,2.60
2018-12-14T16:47:20.218Z,2.60
2018-12-14T16:49:49.126Z,2.60
2018-12-14T16:52:17.990Z,2.50
2018-12-14T16:54:46.798Z,2.50
2018-12-14T16:57:15.742Z,2.50
2018-12-14T16:59:44.618Z,2.50
2018-12-14T17:02:13.612Z,2.50
2018-12-14T17:04:42.508Z,2.40
2018-12-14T17:07:11.466Z,2.40
2018-12-14T17:09:40.261Z,2.40
2018-12-14T17:12:09.140Z,2.40
2018-12-14T17:14:37.955Z,2.40
2018-12-14T17:17:06.774Z,2.40
2018-12-14T17:19:35.573Z,2.30
2018-12-14T17:22:04.607Z,2.40
2018-12-14T17:24:33.457Z,2.40
2018-12-14T17:27:02.276Z,2.40
2018-12-14T17:29:31.171Z,2.40
2018-12-14T17:32:00.028Z,2.40
2018-12-14T17:34:28.932Z,2.30
2018-12-14T17:36:59.755Z,2.30
2018-12-14T17:39:30.703Z,2.30
2018-12-14T17:42:01.557Z,2.30
2018-12-14T17:44:30.383Z,2.30
2018-12-14T17:46:59.265Z,2.30
2018-12-14T17:49:31.759Z,2.30
2018-12-14T17:52:01.777Z,2.30
2018-12-14T17:54:30.611Z,2.30
2018-12-14T17:56:59.447Z,2.30
2018-12-14T17:59:28.282Z,2.30
2018-12-14T18:01:57.106Z,2.40
2018-12-14T18:04:25.959Z,2.40
2018-12-14T18:06:54.917Z,2.40
2018-12-14T18:09:23.754Z,2.40
2018-12-14T18:11:52.558Z,2.40
2018-12-14T18:14:21.426Z,2.50
2018-12-14T18:16:50.282Z,2.50
2018-12-14T18:19:20.039Z,2.50
2018-12-14T18:21:48.872Z,2.50
2018-12-14T18:24:17.671Z,2.50
2018-12-14T18:26:46.509Z,2.60
2018-12-14T18:29:15.382Z,2.60
2018-12-14T18:31:44.231Z,2.50
2018-12-14T18:34:13.025Z,2.50
2018-12-14T18:36:41.908Z,2.50
2018-12-14T18:39:10.853Z,2.50
2018-12-14T18:41:39.920Z,2.40
2018-12-14T18:44:08.825Z,2.40
2018-12-14T18:46:37.692Z,2.40
2018-12-14T18:49:06.514Z,2.50
2018-12-14T18:51:35.331Z,2.50
2018-12-14T18:54:04.150Z,2.50
2018-12-14T18:56:32.960Z,2.50
2018-12-14T18:59:02.045Z,2.50
2018-12-14T19:01:30.992Z,2.50
2018-12-14T19:03:59.864Z,2.50
2018-12-14T19:06:28.648Z,2.50
2018-12-14T19:08:57.512Z,2.40
2018-12-14T19:11:26.316Z,2.40
2018-12-14T19:13:55.125Z,2.40
2018-12-14T19:16:23.904Z,2.40
2018-12-14T19:18:52.716Z,2.40
2018-12-14T19:21:21.592Z,2.40
2018-12-14T19:23:50.394Z,2.40
2018-12-14T19:26:19.400Z,2.50
2018-12-14T19:28:48.407Z,2.40
2018-12-14T19:31:17.242Z,2.40
2018-12-14T19:33:46.051Z,2.40
2018-12-14T19:36:14.865Z,2.40
2018-12-14T19:38:43.678Z,2.40
2018-12-14T19:42:15.243Z,2.40
2018-12-14T19:44:44.049Z,2.40
2018-12-14T19:47:13.315Z,2.40
2018-12-14T19:49:42.204Z,2.40
2018-12-14T19:52:11.483Z,2.40
2018-12-14T19:54:40.387Z,2.40
2018-12-14T19:57:09.747Z,2.40
2018-12-14T19:59:38.639Z,2.40
2018-12-14T20:02:07.562Z,2.40
2018-12-14T20:04:36.374Z,2.40
2018-12-14T20:07:05.317Z,2.40
2018-12-14T20:09:34.101Z,2.40
2018-12-14T20:12:02.936Z,2.50
2018-12-14T20:14:31.883Z,2.50
2018-12-14T20:17:00.867Z,2.40
2018-12-14T20:19:29.777Z,2.40
2018-12-14T20:21:58.682Z,2.40
2018-12-14T20:24:27.505Z,2.50
2018-12-14T20:26:56.292Z,2.40
2018-12-14T20:29:25.214Z,2.40
2018-12-14T20:31:55.440Z,2.40
2018-12-14T20:34:24.277Z,2.40
2018-12-14T20:36:53.097Z,2.40
2018-12-14T20:39:21.901Z,2.40
2018-12-14T20:41:50.712Z,2.40
2018-12-14T20:44:19.549Z,2.40
2018-12-14T20:46:48.375Z,2.40
2018-12-14T20:49:17.181Z,2.40
2018-12-14T20:51:46.048Z,2.30
2018-12-14T20:54:14.839Z,2.40
2018-12-14T20:56:43.646Z,2.40
2018-12-14T20:59:12.474Z,2.40
2018-12-14T21:01:41.365Z,2.40
2018-12-14T21:04:10.249Z,2.40
2018-12-14T21:06:39.053Z,2.40
2018-12-14T21:09:07.906Z,2.40
2018-12-14T21:11:38.667Z,2.40
2018-12-14T21:14:07.589Z,2.40
2018-12-14T21:16:36.389Z,2.30
2018-12-14T21:19:05.201Z,2.30
2018-12-14T21:21:34.639Z,2.30
2018-12-14T21:24:03.525Z,2.30
2018-12-14T21:26:32.395Z,2.40
2018-12-14T21:29:01.221Z,2.30
2018-12-14T21:31:30.136Z,2.30
2018-12-14T21:33:58.953Z,2.30
2018-12-14T21:36:27.748Z,2.30
2018-12-14T21:38:56.577Z,2.30
2018-12-14T21:41:25.395Z,2.40
2018-12-14T21:43:54.257Z,2.40
2018-12-14T21:46:23.049Z,2.40
2018-12-14T21:48:51.878Z,2.40
2018-12-14T21:51:20.686Z,2.40
2018-12-14T21:53:49.577Z,2.30
2018-12-14T21:56:18.561Z,2.30
2018-12-14T21:58:47.377Z,2.30
2018-12-14T22:01:16.265Z,2.30
2018-12-14T22:03:45.133Z,2.30
2018-12-14T22:06:13.959Z,2.30
2018-12-14T22:08:42.747Z,2.30
2018-12-14T22:11:11.550Z,2.30
2018-12-14T22:13:40.412Z,2.30
2018-12-14T22:16:09.274Z,2.30
2018-12-14T22:18:38.114Z,2.30
2018-12-14T22:21:06.994Z,2.30
2018-12-14T22:23:35.785Z,2.30
2018-12-14T22:26:04.854Z,2.30
2018-12-14T22:28:33.729Z,2.30
2018-12-14T22:31:04.010Z,2.30
2018-12-14T22:33:33.418Z,2.30
2018-12-14T22:36:02.398Z,2.30
2018-12-14T22:38:31.188Z,2.20
2018-12-14T22:41:00.428Z,2.20
2018-12-14T22:43:29.957Z,2.30
2018-12-14T22:45:58.793Z,2.30
2018-12-14T22:48:27.684Z,2.20
2018-12-14T22:50:56.476Z,2.20
2018-12-14T22:53:25.296Z,2.20
2018-12-14T22:55:54.316Z,2.20
2018-12-14T22:58:23.133Z,2.20
2018-12-14T23:00:53.335Z,2.30
2018-12-14T23:03:23.086Z,2.30
2018-12-14T23:05:52.278Z,2.30
2018-12-14T23:08:21.090Z,2.40
2018-12-14T23:10:49.974Z,2.40
2018-12-14T23:13:18.802Z,2.40
2018-12-14T23:15:47.779Z,2.40
2018-12-14T23:18:16.656Z,2.30
2018-12-14T23:20:45.468Z,2.30
2018-12-14T23:23:14.272Z,2.20
2018-12-14T23:25:44.249Z,2.20
2018-12-14T23:28:13.197Z,2.20
2018-12-14T23:30:42.190Z,2.20
2018-12-14T23:33:10.991Z,2.20
2018-12-14T23:35:39.796Z,2.20
2018-12-14T23:38:08.645Z,2.20
2018-12-14T23:40:37.491Z,2.30
2018-12-14T23:43:06.392Z,2.30
2018-12-14T23:45:35.208Z,2.40
2018-12-14T23:48:04.032Z,2.40
2018-12-14T23:50:32.835Z,2.30
2018-12-14T23:53:01.648Z,2.20
2018-12-14T23:55:30.456Z,2.20
2018-12-14T23:57:59.272Z,2.20
